sensor_id;sensor_type;location;lat;lon;timestamp;P1;durP1;ratioP1;P2;durP2;ratioP2
11123;SDS011;5616;42.692;23.312;2022-12-16T00:00:23;172.97;;;102.00;;
11123;SDS011;5616;42.692;23.312;2022-12-16T00:02:50;115.50;;;73.47;;
11123;SDS011;5616;42.692;23.312;2022-12-16T00:05:19;99.70;;;64.13;;
11123;SDS011;5616;42.692;23.312;2022-12-16T00:07:46;86.83;;;59.67;;
11123;SDS011;5616;42.692;23.312;2022-12-16T00:10:13;88.30;;;59.83;;
11123;SDS011;5616;42.692;23.312;2022-12-16T00:12:40;91.20;;;60.07;;
11123;SDS011;5616;42.692;23.312;2022-12-16T00:15:07;92.97;;;59.67;;
11123;SDS011;5616;42.692;23.312;2022-12-16T00:17:35;87.83;;;59.53;;
11123;SDS011;5616;42.692;23.312;2022-12-16T00:20:02;84.33;;;56.73;;
11123;SDS011;5616;42.692;23.312;2022-12-16T00:22:31;95.30;;;60.73;;
11123;SDS011;5616;42.692;23.312;2022-12-16T00:24:57;106.60;;;65.73;;
11123;SDS011;5616;42.692;23.312;2022-12-16T00:27:24;106.27;;;64.07;;
11123;SDS011;5616;42.692;23.312;2022-12-16T00:29:51;103.90;;;62.77;;
11123;SDS011;5616;42.692;23.312;2022-12-16T00:32:18;99.20;;;65.57;;
11123;SDS011;5616;42.692;23.312;2022-12-16T00:34:45;98.53;;;63.63;;
11123;SDS011;5616;42.692;23.312;2022-12-16T00:37:12;94.10;;;64.07;;
11123;SDS011;5616;42.692;23.312;2022-12-16T00:39:40;102.07;;;66.60;;
11123;SDS011;5616;42.692;23.312;2022-12-16T00:42:07;102.07;;;66.77;;
11123;SDS011;5616;42.692;23.312;2022-12-16T00:44:33;101.77;;;65.50;;
11123;SDS011;5616;42.692;23.312;2022-12-16T00:47:00;93.80;;;62.93;;
11123;SDS011;5616;42.692;23.312;2022-12-16T00:49:27;97.90;;;60.97;;
11123;SDS011;5616;42.692;23.312;2022-12-16T00:51:54;92.67;;;57.80;;
11123;SDS011;5616;42.692;23.312;2022-12-16T00:54:21;85.23;;;58.40;;
11123;SDS011;5616;42.692;23.312;2022-12-16T00:56:49;94.90;;;60.33;;
11123;SDS011;5616;42.692;23.312;2022-12-16T00:59:16;99.40;;;59.90;;
11123;SDS011;5616;42.692;23.312;2022-12-16T01:01:43;89.63;;;59.10;;
11123;SDS011;5616;42.692;23.312;2022-12-16T01:04:10;92.87;;;59.73;;
11123;SDS011;5616;42.692;23.312;2022-12-16T01:06:37;89.97;;;57.57;;
11123;SDS011;5616;42.692;23.312;2022-12-16T01:09:03;89.87;;;58.13;;
11123;SDS011;5616;42.692;23.312;2022-12-16T01:11:30;98.37;;;59.93;;
11123;SDS011;5616;42.692;23.312;2022-12-16T01:13:59;88.87;;;56.33;;
11123;SDS011;5616;42.692;23.312;2022-12-16T01:16:25;94.00;;;56.63;;
11123;SDS011;5616;42.692;23.312;2022-12-16T01:18:52;98.47;;;57.63;;
11123;SDS011;5616;42.692;23.312;2022-12-16T01:21:20;95.17;;;56.97;;
11123;SDS011;5616;42.692;23.312;2022-12-16T01:23:47;99.10;;;56.87;;
11123;SDS011;5616;42.692;23.312;2022-12-16T01:26:15;99.80;;;56.50;;
11123;SDS011;5616;42.692;23.312;2022-12-16T01:28:43;101.10;;;56.90;;
11123;SDS011;5616;42.692;23.312;2022-12-16T01:31:12;101.10;;;56.57;;
11123;SDS011;5616;42.692;23.312;2022-12-16T01:33:40;106.63;;;58.70;;
11123;SDS011;5616;42.692;23.312;2022-12-16T01:36:07;101.83;;;56.60;;
11123;SDS011;5616;42.692;23.312;2022-12-16T01:38:35;99.27;;;56.40;;
11123;SDS011;5616;42.692;23.312;2022-12-16T01:41:03;103.40;;;56.53;;
11123;SDS011;5616;42.692;23.312;2022-12-16T01:43:31;111.17;;;58.37;;
11123;SDS011;5616;42.692;23.312;2022-12-16T01:46:01;109.30;;;57.53;;
11123;SDS011;5616;42.692;23.312;2022-12-16T01:48:42;108.30;;;57.13;;
11123;SDS011;5616;42.692;23.312;2022-12-16T01:51:13;118.97;;;60.47;;
11123;SDS011;5616;42.692;23.312;2022-12-16T01:53:43;110.73;;;62.17;;
11123;SDS011;5616;42.692;23.312;2022-12-16T01:56:13;128.63;;;63.80;;
11123;SDS011;5616;42.692;23.312;2022-12-16T01:58:42;119.93;;;64.90;;
11123;SDS011;5616;42.692;23.312;2022-12-16T02:01:10;122.50;;;62.43;;
11123;SDS011;5616;42.692;23.312;2022-12-16T02:03:38;114.27;;;61.70;;
11123;SDS011;5616;42.692;23.312;2022-12-16T02:06:09;184.53;;;58.47;;
11123;SDS011;5616;42.692;23.312;2022-12-16T02:08:36;146.30;;;59.87;;
11123;SDS011;5616;42.692;23.312;2022-12-16T02:11:07;128.57;;;54.93;;
11123;SDS011;5616;42.692;23.312;2022-12-16T02:13:48;130.80;;;50.53;;
11123;SDS011;5616;42.692;23.312;2022-12-16T02:16:28;103.73;;;49.63;;
11123;SDS011;5616;42.692;23.312;2022-12-16T02:19:06;112.23;;;49.73;;
11123;SDS011;5616;42.692;23.312;2022-12-16T02:21:51;116.83;;;52.10;;
11123;SDS011;5616;42.692;23.312;2022-12-16T02:30:46;105.53;;;50.83;;
11123;SDS011;5616;42.692;23.312;2022-12-16T02:33:26;93.77;;;50.40;;
11123;SDS011;5616;42.692;23.312;2022-12-16T02:36:17;106.73;;;48.47;;
11123;SDS011;5616;42.692;23.312;2022-12-16T02:38:54;97.23;;;49.73;;
11123;SDS011;5616;42.692;23.312;2022-12-16T02:41:24;88.30;;;49.10;;
11123;SDS011;5616;42.692;23.312;2022-12-16T02:44:00;77.73;;;47.60;;
11123;SDS011;5616;42.692;23.312;2022-12-16T02:46:31;87.00;;;49.37;;
11123;SDS011;5616;42.692;23.312;2022-12-16T02:49:04;83.03;;;47.23;;
11123;SDS011;5616;42.692;23.312;2022-12-16T02:51:32;76.97;;;47.23;;
11123;SDS011;5616;42.692;23.312;2022-12-16T02:54:02;78.17;;;47.10;;
11123;SDS011;5616;42.692;23.312;2022-12-16T02:56:33;88.07;;;49.70;;
11123;SDS011;5616;42.692;23.312;2022-12-16T02:59:14;85.30;;;49.40;;
11123;SDS011;5616;42.692;23.312;2022-12-16T03:01:50;77.43;;;48.17;;
11123;SDS011;5616;42.692;23.312;2022-12-16T03:04:20;103.23;;;51.40;;
11123;SDS011;5616;42.692;23.312;2022-12-16T03:06:51;88.93;;;48.33;;
11123;SDS011;5616;42.692;23.312;2022-12-16T03:09:23;75.23;;;47.03;;
11123;SDS011;5616;42.692;23.312;2022-12-16T03:11:54;73.50;;;46.53;;
11123;SDS011;5616;42.692;23.312;2022-12-16T03:14:24;74.87;;;44.40;;
11123;SDS011;5616;42.692;23.312;2022-12-16T03:16:56;63.57;;;38.77;;
11123;SDS011;5616;42.692;23.312;2022-12-16T03:19:24;62.70;;;38.20;;
11123;SDS011;5616;42.692;23.312;2022-12-16T03:21:53;59.07;;;37.27;;
11123;SDS011;5616;42.692;23.312;2022-12-16T03:24:25;55.03;;;35.67;;
11123;SDS011;5616;42.692;23.312;2022-12-16T03:26:54;53.73;;;35.87;;
11123;SDS011;5616;42.692;23.312;2022-12-16T03:29:42;59.87;;;39.20;;
11123;SDS011;5616;42.692;23.312;2022-12-16T03:32:19;63.13;;;40.80;;
11123;SDS011;5616;42.692;23.312;2022-12-16T03:34:52;59.20;;;40.00;;
11123;SDS011;5616;42.692;23.312;2022-12-16T03:37:26;59.33;;;40.70;;
11123;SDS011;5616;42.692;23.312;2022-12-16T03:39:59;59.23;;;38.90;;
11123;SDS011;5616;42.692;23.312;2022-12-16T03:42:30;63.10;;;40.43;;
11123;SDS011;5616;42.692;23.312;2022-12-16T03:44:57;65.77;;;41.03;;
11123;SDS011;5616;42.692;23.312;2022-12-16T03:47:25;59.57;;;39.00;;
11123;SDS011;5616;42.692;23.312;2022-12-16T03:49:54;59.00;;;37.80;;
11123;SDS011;5616;42.692;23.312;2022-12-16T03:52:21;60.77;;;41.20;;
11123;SDS011;5616;42.692;23.312;2022-12-16T03:54:48;55.83;;;36.10;;
11123;SDS011;5616;42.692;23.312;2022-12-16T03:57:15;52.17;;;34.47;;
11123;SDS011;5616;42.692;23.312;2022-12-16T03:59:42;54.10;;;34.10;;
11123;SDS011;5616;42.692;23.312;2022-12-16T04:02:09;49.67;;;31.80;;
11123;SDS011;5616;42.692;23.312;2022-12-16T04:04:37;52.37;;;32.70;;
11123;SDS011;5616;42.692;23.312;2022-12-16T04:07:04;55.07;;;34.07;;
11123;SDS011;5616;42.692;23.312;2022-12-16T04:09:46;54.03;;;33.97;;
11123;SDS011;5616;42.692;23.312;2022-12-16T04:12:13;49.43;;;33.93;;
11123;SDS011;5616;42.692;23.312;2022-12-16T04:14:57;47.53;;;32.83;;
11123;SDS011;5616;42.692;23.312;2022-12-16T04:17:42;51.90;;;34.23;;
11123;SDS011;5616;42.692;23.312;2022-12-16T04:20:28;47.27;;;31.47;;
11123;SDS011;5616;42.692;23.312;2022-12-16T04:23:15;46.50;;;30.93;;
11123;SDS011;5616;42.692;23.312;2022-12-16T04:26:00;50.73;;;31.53;;
11123;SDS011;5616;42.692;23.312;2022-12-16T04:28:27;46.67;;;30.50;;
11123;SDS011;5616;42.692;23.312;2022-12-16T04:30:53;48.80;;;30.87;;
11123;SDS011;5616;42.692;23.312;2022-12-16T04:33:21;47.10;;;31.00;;
11123;SDS011;5616;42.692;23.312;2022-12-16T04:36:07;44.10;;;29.57;;
11123;SDS011;5616;42.692;23.312;2022-12-16T04:38:52;43.10;;;29.63;;
11123;SDS011;5616;42.692;23.312;2022-12-16T04:41:36;42.60;;;28.80;;
11123;SDS011;5616;42.692;23.312;2022-12-16T04:44:20;43.73;;;29.33;;
11123;SDS011;5616;42.692;23.312;2022-12-16T04:47:04;44.53;;;29.03;;
11123;SDS011;5616;42.692;23.312;2022-12-16T04:49:49;42.30;;;27.47;;
11123;SDS011;5616;42.692;23.312;2022-12-16T04:52:36;40.43;;;27.03;;
11123;SDS011;5616;42.692;23.312;2022-12-16T04:55:20;36.47;;;24.27;;
11123;SDS011;5616;42.692;23.312;2022-12-16T04:58:04;37.00;;;24.47;;
11123;SDS011;5616;42.692;23.312;2022-12-16T05:00:49;35.53;;;24.50;;
11123;SDS011;5616;42.692;23.312;2022-12-16T05:03:38;34.50;;;24.80;;
11123;SDS011;5616;42.692;23.312;2022-12-16T05:06:25;32.83;;;24.50;;
11123;SDS011;5616;42.692;23.312;2022-12-16T05:09:07;38.45;;;30.50;;
11123;SDS011;5616;42.692;23.312;2022-12-16T05:11:51;35.60;;;25.97;;
11123;SDS011;5616;42.692;23.312;2022-12-16T05:14:35;34.53;;;25.20;;
11123;SDS011;5616;42.692;23.312;2022-12-16T05:17:20;36.93;;;25.43;;
11123;SDS011;5616;42.692;23.312;2022-12-16T05:20:04;34.53;;;24.63;;
11123;SDS011;5616;42.692;23.312;2022-12-16T05:22:49;34.67;;;25.23;;
11123;SDS011;5616;42.692;23.312;2022-12-16T05:25:35;38.23;;;26.13;;
11123;SDS011;5616;42.692;23.312;2022-12-16T05:28:19;37.00;;;25.93;;
11123;SDS011;5616;42.692;23.312;2022-12-16T05:31:04;37.80;;;26.43;;
11123;SDS011;5616;42.692;23.312;2022-12-16T05:33:48;40.00;;;26.20;;
11123;SDS011;5616;42.692;23.312;2022-12-16T05:36:33;38.63;;;26.57;;
11123;SDS011;5616;42.692;23.312;2022-12-16T05:39:17;39.83;;;26.37;;
11123;SDS011;5616;42.692;23.312;2022-12-16T05:42:02;40.77;;;26.73;;
11123;SDS011;5616;42.692;23.312;2022-12-16T05:44:47;39.90;;;30.77;;
11123;SDS011;5616;42.692;23.312;2022-12-16T05:47:31;38.60;;;26.37;;
11123;SDS011;5616;42.692;23.312;2022-12-16T05:50:16;39.63;;;26.87;;
11123;SDS011;5616;42.692;23.312;2022-12-16T05:53:07;36.23;;;25.87;;
11123;SDS011;5616;42.692;23.312;2022-12-16T05:55:51;36.33;;;25.40;;
11123;SDS011;5616;42.692;23.312;2022-12-16T05:58:37;37.43;;;26.53;;
11123;SDS011;5616;42.692;23.312;2022-12-16T06:01:21;33.83;;;23.77;;
11123;SDS011;5616;42.692;23.312;2022-12-16T06:04:06;36.70;;;23.97;;
11123;SDS011;5616;42.692;23.312;2022-12-16T06:07:02;37.03;;;28.70;;
11123;SDS011;5616;42.692;23.312;2022-12-16T06:09:46;40.20;;;28.37;;
11123;SDS011;5616;42.692;23.312;2022-12-16T06:12:31;38.80;;;26.43;;
11123;SDS011;5616;42.692;23.312;2022-12-16T06:15:16;36.60;;;26.00;;
11123;SDS011;5616;42.692;23.312;2022-12-16T06:18:01;36.47;;;24.53;;
11123;SDS011;5616;42.692;23.312;2022-12-16T06:20:45;35.87;;;27.07;;
11123;SDS011;5616;42.692;23.312;2022-12-16T06:23:29;39.77;;;26.33;;
11123;SDS011;5616;42.692;23.312;2022-12-16T06:26:16;40.03;;;28.40;;
11123;SDS011;5616;42.692;23.312;2022-12-16T06:32:56;37.03;;;25.27;;
11123;SDS011;5616;42.692;23.312;2022-12-16T06:35:40;38.33;;;24.30;;
11123;SDS011;5616;42.692;23.312;2022-12-16T06:38:24;36.33;;;24.60;;
11123;SDS011;5616;42.692;23.312;2022-12-16T06:41:08;37.97;;;25.70;;
11123;SDS011;5616;42.692;23.312;2022-12-16T06:43:53;35.47;;;24.03;;
11123;SDS011;5616;42.692;23.312;2022-12-16T06:46:37;33.03;;;22.97;;
11123;SDS011;5616;42.692;23.312;2022-12-16T06:49:22;32.67;;;21.67;;
11123;SDS011;5616;42.692;23.312;2022-12-16T06:52:07;36.17;;;22.20;;
11123;SDS011;5616;42.692;23.312;2022-12-16T06:54:51;34.20;;;22.30;;
11123;SDS011;5616;42.692;23.312;2022-12-16T06:57:35;37.53;;;23.67;;
11123;SDS011;5616;42.692;23.312;2022-12-16T07:00:20;35.77;;;24.63;;
11123;SDS011;5616;42.692;23.312;2022-12-16T07:03:04;37.03;;;25.03;;
11123;SDS011;5616;42.692;23.312;2022-12-16T07:05:52;37.07;;;25.70;;
11123;SDS011;5616;42.692;23.312;2022-12-16T07:08:36;39.47;;;26.03;;
11123;SDS011;5616;42.692;23.312;2022-12-16T07:11:21;38.00;;;26.47;;
11123;SDS011;5616;42.692;23.312;2022-12-16T07:14:05;38.00;;;25.87;;
11123;SDS011;5616;42.692;23.312;2022-12-16T07:16:49;40.97;;;27.43;;
11123;SDS011;5616;42.692;23.312;2022-12-16T07:19:34;40.73;;;26.60;;
11123;SDS011;5616;42.692;23.312;2022-12-16T07:22:19;45.00;;;29.53;;
11123;SDS011;5616;42.692;23.312;2022-12-16T07:25:04;44.73;;;29.17;;
11123;SDS011;5616;42.692;23.312;2022-12-16T07:27:49;47.00;;;29.57;;
11123;SDS011;5616;42.692;23.312;2022-12-16T07:30:33;44.20;;;29.40;;
11123;SDS011;5616;42.692;23.312;2022-12-16T07:33:17;45.37;;;29.07;;
11123;SDS011;5616;42.692;23.312;2022-12-16T07:36:02;51.10;;;31.80;;
11123;SDS011;5616;42.692;23.312;2022-12-16T07:38:48;53.97;;;32.37;;
11123;SDS011;5616;42.692;23.312;2022-12-16T07:41:32;53.13;;;33.97;;
11123;SDS011;5616;42.692;23.312;2022-12-16T07:44:18;68.13;;;39.07;;
11123;SDS011;5616;42.692;23.312;2022-12-16T07:47:02;68.23;;;40.43;;
11123;SDS011;5616;42.692;23.312;2022-12-16T07:49:46;64.27;;;39.07;;
11123;SDS011;5616;42.692;23.312;2022-12-16T07:52:31;69.27;;;40.00;;
11123;SDS011;5616;42.692;23.312;2022-12-16T07:55:17;68.90;;;41.30;;
11123;SDS011;5616;42.692;23.312;2022-12-16T07:58:01;84.87;;;44.97;;
11123;SDS011;5616;42.692;23.312;2022-12-16T08:00:53;87.10;;;47.30;;
11123;SDS011;5616;42.692;23.312;2022-12-16T08:03:38;98.27;;;46.30;;
11123;SDS011;5616;42.692;23.312;2022-12-16T08:06:22;89.47;;;45.27;;
11123;SDS011;5616;42.692;23.312;2022-12-16T08:09:07;80.00;;;43.67;;
11123;SDS011;5616;42.692;23.312;2022-12-16T08:11:53;79.57;;;43.27;;
11123;SDS011;5616;42.692;23.312;2022-12-16T08:14:37;57.90;;;31.53;;
11123;SDS011;5616;42.692;23.312;2022-12-16T08:17:22;52.60;;;31.63;;
11123;SDS011;5616;42.692;23.312;2022-12-16T08:20:06;51.17;;;30.23;;
11123;SDS011;5616;42.692;23.312;2022-12-16T08:22:51;54.73;;;28.97;;
11123;SDS011;5616;42.692;23.312;2022-12-16T08:25:38;48.77;;;27.93;;
11123;SDS011;5616;42.692;23.312;2022-12-16T08:28:23;47.17;;;27.47;;
11123;SDS011;5616;42.692;23.312;2022-12-16T08:31:07;49.67;;;27.30;;
11123;SDS011;5616;42.692;23.312;2022-12-16T08:33:52;48.83;;;28.10;;
11123;SDS011;5616;42.692;23.312;2022-12-16T08:36:36;42.47;;;26.33;;
11123;SDS011;5616;42.692;23.312;2022-12-16T08:39:20;49.07;;;26.93;;
11123;SDS011;5616;42.692;23.312;2022-12-16T08:42:05;45.93;;;26.33;;
11123;SDS011;5616;42.692;23.312;2022-12-16T08:44:51;47.60;;;27.53;;
11123;SDS011;5616;42.692;23.312;2022-12-16T08:47:35;45.33;;;27.10;;
11123;SDS011;5616;42.692;23.312;2022-12-16T08:50:19;40.63;;;24.93;;
11123;SDS011;5616;42.692;23.312;2022-12-16T08:53:03;41.57;;;25.23;;
11123;SDS011;5616;42.692;23.312;2022-12-16T08:55:47;46.80;;;29.20;;
11123;SDS011;5616;42.692;23.312;2022-12-16T08:58:32;49.10;;;28.40;;
11123;SDS011;5616;42.692;23.312;2022-12-16T09:01:18;50.07;;;30.40;;
11123;SDS011;5616;42.692;23.312;2022-12-16T09:04:02;48.70;;;30.30;;
11123;SDS011;5616;42.692;23.312;2022-12-16T09:06:46;52.13;;;30.30;;
11123;SDS011;5616;42.692;23.312;2022-12-16T09:09:31;47.47;;;29.97;;
11123;SDS011;5616;42.692;23.312;2022-12-16T09:12:15;49.27;;;30.20;;
11123;SDS011;5616;42.692;23.312;2022-12-16T09:14:59;51.67;;;29.53;;
11123;SDS011;5616;42.692;23.312;2022-12-16T09:17:45;44.73;;;27.33;;
11123;SDS011;5616;42.692;23.312;2022-12-16T09:20:36;43.70;;;27.40;;
11123;SDS011;5616;42.692;23.312;2022-12-16T09:23:21;50.73;;;30.40;;
11123;SDS011;5616;42.692;23.312;2022-12-16T09:26:01;48.23;;;30.70;;
11123;SDS011;5616;42.692;23.312;2022-12-16T09:28:45;52.07;;;30.63;;
11123;SDS011;5616;42.692;23.312;2022-12-16T09:31:30;47.23;;;30.00;;
11123;SDS011;5616;42.692;23.312;2022-12-16T09:34:15;40.30;;;26.80;;
11123;SDS011;5616;42.692;23.312;2022-12-16T09:37:00;36.37;;;26.40;;
11123;SDS011;5616;42.692;23.312;2022-12-16T09:39:44;43.47;;;27.40;;
11123;SDS011;5616;42.692;23.312;2022-12-16T09:42:29;44.57;;;28.33;;
11123;SDS011;5616;42.692;23.312;2022-12-16T09:45:30;49.93;;;30.93;;
11123;SDS011;5616;42.692;23.312;2022-12-16T09:48:20;48.63;;;30.90;;
11123;SDS011;5616;42.692;23.312;2022-12-16T09:51:43;49.57;;;30.33;;
11123;SDS011;5616;42.692;23.312;2022-12-16T09:54:30;54.63;;;35.20;;
11123;SDS011;5616;42.692;23.312;2022-12-16T09:57:18;57.27;;;38.67;;
11123;SDS011;5616;42.692;23.312;2022-12-16T10:00:04;68.90;;;45.50;;
11123;SDS011;5616;42.692;23.312;2022-12-16T10:02:55;65.20;;;44.03;;
11123;SDS011;5616;42.692;23.312;2022-12-16T10:05:45;71.30;;;47.40;;
11123;SDS011;5616;42.692;23.312;2022-12-16T10:08:38;74.87;;;48.77;;
11123;SDS011;5616;42.692;23.312;2022-12-16T10:11:31;68.90;;;46.23;;
11123;SDS011;5616;42.692;23.312;2022-12-16T10:14:27;57.43;;;38.83;;
11123;SDS011;5616;42.692;23.312;2022-12-16T10:17:15;59.37;;;38.87;;
11123;SDS011;5616;42.692;23.312;2022-12-16T10:20:06;56.13;;;38.13;;
11123;SDS011;5616;42.692;23.312;2022-12-16T10:22:59;54.83;;;35.27;;
11123;SDS011;5616;42.692;23.312;2022-12-16T10:25:52;58.07;;;34.93;;
11123;SDS011;5616;42.692;23.312;2022-12-16T10:28:43;55.53;;;36.03;;
11123;SDS011;5616;42.692;23.312;2022-12-16T10:31:29;52.53;;;34.13;;
11123;SDS011;5616;42.692;23.312;2022-12-16T10:34:15;56.47;;;34.77;;
11123;SDS011;5616;42.692;23.312;2022-12-16T10:37:03;51.27;;;33.43;;
11123;SDS011;5616;42.692;23.312;2022-12-16T10:39:48;46.87;;;32.73;;
11123;SDS011;5616;42.692;23.312;2022-12-16T10:42:41;48.40;;;31.53;;
11123;SDS011;5616;42.692;23.312;2022-12-16T10:45:31;46.00;;;31.87;;
11123;SDS011;5616;42.692;23.312;2022-12-16T10:48:21;51.37;;;34.10;;
11123;SDS011;5616;42.692;23.312;2022-12-16T10:51:10;51.17;;;32.63;;
11123;SDS011;5616;42.692;23.312;2022-12-16T10:53:56;50.07;;;32.73;;
11123;SDS011;5616;42.692;23.312;2022-12-16T10:56:55;47.80;;;32.07;;
11123;SDS011;5616;42.692;23.312;2022-12-16T10:59:44;47.73;;;32.00;;
11123;SDS011;5616;42.692;23.312;2022-12-16T11:02:29;41.13;;;31.00;;
11123;SDS011;5616;42.692;23.312;2022-12-16T11:05:21;40.83;;;30.47;;
11123;SDS011;5616;42.692;23.312;2022-12-16T11:08:22;41.77;;;31.07;;
11123;SDS011;5616;42.692;23.312;2022-12-16T11:11:11;46.30;;;30.83;;
11123;SDS011;5616;42.692;23.312;2022-12-16T11:14:08;43.47;;;30.83;;
11123;SDS011;5616;42.692;23.312;2022-12-16T11:17:18;45.63;;;30.80;;
11123;SDS011;5616;42.692;23.312;2022-12-16T11:20:05;42.13;;;29.50;;
11123;SDS011;5616;42.692;23.312;2022-12-16T11:26:06;38.77;;;28.47;;
11123;SDS011;5616;42.692;23.312;2022-12-16T11:29:05;42.47;;;29.20;;
11123;SDS011;5616;42.692;23.312;2022-12-16T11:31:55;42.37;;;30.27;;
11123;SDS011;5616;42.692;23.312;2022-12-16T11:34:45;39.03;;;27.93;;
11123;SDS011;5616;42.692;23.312;2022-12-16T11:37:35;29.93;;;25.17;;
11123;SDS011;5616;42.692;23.312;2022-12-16T11:40:22;35.40;;;24.33;;
11123;SDS011;5616;42.692;23.312;2022-12-16T11:43:07;33.80;;;25.23;;
11123;SDS011;5616;42.692;23.312;2022-12-16T11:45:54;30.10;;;23.30;;
11123;SDS011;5616;42.692;23.312;2022-12-16T11:48:41;27.40;;;22.90;;
11123;SDS011;5616;42.692;23.312;2022-12-16T11:51:32;51.65;;;33.15;;
11123;SDS011;5616;42.692;23.312;2022-12-16T11:54:20;38.60;;;27.00;;
11123;SDS011;5616;42.692;23.312;2022-12-16T11:57:16;30.13;;;23.37;;
11123;SDS011;5616;42.692;23.312;2022-12-16T12:00:04;31.07;;;21.90;;
11123;SDS011;5616;42.692;23.312;2022-12-16T12:02:51;28.63;;;21.43;;
11123;SDS011;5616;42.692;23.312;2022-12-16T12:05:43;34.70;;;23.73;;
11123;SDS011;5616;42.692;23.312;2022-12-16T12:08:37;53.67;;;30.40;;
11123;SDS011;5616;42.692;23.312;2022-12-16T12:11:29;29.87;;;21.03;;
11123;SDS011;5616;42.692;23.312;2022-12-16T12:14:17;30.83;;;19.20;;
11123;SDS011;5616;42.692;23.312;2022-12-16T12:17:17;25.53;;;18.43;;
11123;SDS011;5616;42.692;23.312;2022-12-16T12:20:26;36.90;;;22.93;;
11123;SDS011;5616;42.692;23.312;2022-12-16T12:23:23;28.73;;;20.37;;
11123;SDS011;5616;42.692;23.312;2022-12-16T12:26:21;26.47;;;20.00;;
11123;SDS011;5616;42.692;23.312;2022-12-16T12:29:13;30.60;;;21.43;;
11123;SDS011;5616;42.692;23.312;2022-12-16T12:32:05;32.13;;;22.70;;
11123;SDS011;5616;42.692;23.312;2022-12-16T12:35:04;31.37;;;22.20;;
11123;SDS011;5616;42.692;23.312;2022-12-16T12:38:01;27.27;;;19.10;;
11123;SDS011;5616;42.692;23.312;2022-12-16T12:40:50;24.60;;;20.03;;
11123;SDS011;5616;42.692;23.312;2022-12-16T12:43:43;33.77;;;23.20;;
11123;SDS011;5616;42.692;23.312;2022-12-16T12:46:52;30.53;;;22.50;;
11123;SDS011;5616;42.692;23.312;2022-12-16T12:49:41;26.83;;;21.57;;
11123;SDS011;5616;42.692;23.312;2022-12-16T12:52:36;33.47;;;23.00;;
11123;SDS011;5616;42.692;23.312;2022-12-16T12:55:39;27.13;;;20.87;;
11123;SDS011;5616;42.692;23.312;2022-12-16T12:58:27;28.73;;;22.53;;
11123;SDS011;5616;42.692;23.312;2022-12-16T13:01:17;30.97;;;21.43;;
11123;SDS011;5616;42.692;23.312;2022-12-16T13:04:05;27.27;;;21.23;;
11123;SDS011;5616;42.692;23.312;2022-12-16T13:06:55;36.03;;;23.83;;
11123;SDS011;5616;42.692;23.312;2022-12-16T13:09:42;29.93;;;22.83;;
11123;SDS011;5616;42.692;23.312;2022-12-16T13:12:29;34.43;;;22.50;;
11123;SDS011;5616;42.692;23.312;2022-12-16T13:15:18;31.37;;;21.13;;
11123;SDS011;5616;42.692;23.312;2022-12-16T13:18:21;30.53;;;22.23;;
11123;SDS011;5616;42.692;23.312;2022-12-16T13:24:40;28.70;;;21.47;;
11123;SDS011;5616;42.692;23.312;2022-12-16T13:27:45;28.23;;;21.27;;
11123;SDS011;5616;42.692;23.312;2022-12-16T13:30:36;81.73;;;38.57;;
11123;SDS011;5616;42.692;23.312;2022-12-16T13:33:25;43.70;;;26.60;;
11123;SDS011;5616;42.692;23.312;2022-12-16T13:36:11;41.13;;;24.43;;
11123;SDS011;5616;42.692;23.312;2022-12-16T13:38:59;36.53;;;24.50;;
11123;SDS011;5616;42.692;23.312;2022-12-16T13:42:02;31.83;;;22.57;;
11123;SDS011;5616;42.692;23.312;2022-12-16T13:44:54;33.13;;;22.30;;
11123;SDS011;5616;42.692;23.312;2022-12-16T13:47:59;31.43;;;22.03;;
11123;SDS011;5616;42.692;23.312;2022-12-16T13:50:48;33.60;;;20.83;;
11123;SDS011;5616;42.692;23.312;2022-12-16T13:53:38;37.60;;;23.37;;
11123;SDS011;5616;42.692;23.312;2022-12-16T13:56:29;34.17;;;22.57;;
11123;SDS011;5616;42.692;23.312;2022-12-16T13:59:19;28.00;;;20.83;;
11123;SDS011;5616;42.692;23.312;2022-12-16T14:02:17;29.80;;;21.00;;
11123;SDS011;5616;42.692;23.312;2022-12-16T14:05:13;30.30;;;22.73;;
11123;SDS011;5616;42.692;23.312;2022-12-16T14:08:02;32.50;;;20.80;;
11123;SDS011;5616;42.692;23.312;2022-12-16T14:10:53;31.17;;;21.47;;
11123;SDS011;5616;42.692;23.312;2022-12-16T14:13:42;28.80;;;21.70;;
11123;SDS011;5616;42.692;23.312;2022-12-16T14:16:35;29.50;;;22.03;;
11123;SDS011;5616;42.692;23.312;2022-12-16T14:19:31;30.73;;;22.07;;
11123;SDS011;5616;42.692;23.312;2022-12-16T14:22:27;35.60;;;23.73;;
11123;SDS011;5616;42.692;23.312;2022-12-16T14:25:24;32.67;;;22.90;;
11123;SDS011;5616;42.692;23.312;2022-12-16T14:28:14;34.50;;;23.77;;
11123;SDS011;5616;42.692;23.312;2022-12-16T14:31:10;34.43;;;23.87;;
11123;SDS011;5616;42.692;23.312;2022-12-16T14:33:59;36.03;;;25.53;;
11123;SDS011;5616;42.692;23.312;2022-12-16T14:36:45;35.60;;;24.63;;
11123;SDS011;5616;42.692;23.312;2022-12-16T14:39:30;36.00;;;24.73;;
11123;SDS011;5616;42.692;23.312;2022-12-16T14:42:19;37.30;;;23.60;;
11123;SDS011;5616;42.692;23.312;2022-12-16T14:45:16;40.07;;;25.30;;
11123;SDS011;5616;42.692;23.312;2022-12-16T14:48:23;34.33;;;24.40;;
11123;SDS011;5616;42.692;23.312;2022-12-16T14:51:19;39.23;;;25.13;;
11123;SDS011;5616;42.692;23.312;2022-12-16T14:57:12;38.17;;;26.00;;
11123;SDS011;5616;42.692;23.312;2022-12-16T15:00:00;37.87;;;26.07;;
11123;SDS011;5616;42.692;23.312;2022-12-16T15:02:54;35.93;;;25.10;;
11123;SDS011;5616;42.692;23.312;2022-12-16T15:05:46;32.33;;;24.40;;
11123;SDS011;5616;42.692;23.312;2022-12-16T15:08:32;32.17;;;23.93;;
11123;SDS011;5616;42.692;23.312;2022-12-16T15:11:20;34.47;;;24.30;;
11123;SDS011;5616;42.692;23.312;2022-12-16T15:14:15;35.83;;;24.23;;
11123;SDS011;5616;42.692;23.312;2022-12-16T15:17:14;37.47;;;24.00;;
11123;SDS011;5616;42.692;23.312;2022-12-16T15:20:02;66.10;;;37.17;;
11123;SDS011;5616;42.692;23.312;2022-12-16T15:22:47;58.03;;;32.93;;
11123;SDS011;5616;42.692;23.312;2022-12-16T15:25:32;40.87;;;27.37;;
11123;SDS011;5616;42.692;23.312;2022-12-16T15:28:23;35.83;;;23.90;;
11123;SDS011;5616;42.692;23.312;2022-12-16T15:31:12;35.30;;;23.87;;
11123;SDS011;5616;42.692;23.312;2022-12-16T15:37:11;34.72;;;24.20;;
11123;SDS011;5616;42.692;23.312;2022-12-16T15:39:58;35.67;;;24.17;;
11123;SDS011;5616;42.692;23.312;2022-12-16T15:42:42;39.63;;;24.67;;
11123;SDS011;5616;42.692;23.312;2022-12-16T15:45:33;35.27;;;25.70;;
11123;SDS011;5616;42.692;23.312;2022-12-16T15:48:19;38.37;;;26.00;;
11123;SDS011;5616;42.692;23.312;2022-12-16T15:51:19;42.57;;;25.67;;
11123;SDS011;5616;42.692;23.312;2022-12-16T15:54:11;37.73;;;25.77;;
11123;SDS011;5616;42.692;23.312;2022-12-16T15:56:59;34.57;;;24.00;;
11123;SDS011;5616;42.692;23.312;2022-12-16T15:59:52;39.67;;;26.13;;
11123;SDS011;5616;42.692;23.312;2022-12-16T16:02:43;38.17;;;24.40;;
11123;SDS011;5616;42.692;23.312;2022-12-16T16:05:30;39.23;;;26.03;;
11123;SDS011;5616;42.692;23.312;2022-12-16T16:08:15;36.50;;;24.17;;
11123;SDS011;5616;42.692;23.312;2022-12-16T16:11:00;32.83;;;23.50;;
11123;SDS011;5616;42.692;23.312;2022-12-16T16:13:44;36.00;;;23.87;;
11123;SDS011;5616;42.692;23.312;2022-12-16T16:16:29;29.30;;;19.93;;